Time;durP1;ratioP1;P1;durP2;ratioP2;P2;SDS_P1;SDS_P2;PMS_P1;PMS_P2;Temp;Humidity;BMP_temperature;BMP_pressure;BME280_temperature;BME280_humidity;BME280_pressure;Samples;Min_cycle;Max_cycle;Signal;HPM_P1;HPM_P2
2022/12/22 03:26:22;;;;;;;17.90;10.08;;;;;;;2.74;73.42;100875.52;1771312;81;20178;-59
2022/12/22 03:29:28;;;;;;;16.48;9.33;;;;;;;2.76;73.49;100871.72;1771511;80;21434;-61
2022/12/22 03:32:33;;;;;;;17.98;9.83;;;;;;;2.80;73.50;100864.25;1771187;81;21213;-59
2022/12/22 03:35:37;;;;;;;18.05;9.90;;;;;;;2.81;73.45;100865.48;1771300;80;21225;-59
2022/12/22 03:38:44;;;;;;;19.00;10.23;;;;;;;2.84;73.45;100868.43;1771256;80;21170;-60
2022/12/22 03:48:29;;;;;;;15.98;9.88;;;;;;;2.97;73.58;100854.37;1771416;80;21289;-59
2022/12/22 03:51:35;;;;;;;17.32;9.98;;;;;;;3.01;73.55;100872.10;1771258;79;21209;-60
2022/12/22 03:54:42;;;;;;;15.93;10.50;;;;;;;3.00;73.50;100859.06;1769190;80;21213;-59
2022/12/22 03:57:47;;;;;;;17.32;10.13;;;;;;;3.03;73.51;100857.95;1769886;80;21221;-58
2022/12/22 04:00:53;;;;;;;17.90;10.25;;;;;;;3.07;73.60;100858.11;1769674;80;21213;-60
2022/12/22 04:03:59;;;;;;;16.65;9.93;;;;;;;3.10;73.64;100855.17;1769985;79;21197;-58
2022/12/22 04:07:06;;;;;;;20.80;9.90;;;;;;;3.12;73.68;100850.52;1770551;80;21213;-57
2022/12/22 04:13:39;;;;;;;17.45;10.38;;;;;;;3.18;73.81;100850.04;1769608;80;21186;-59
2022/12/22 04:16:45;;;;;;;15.10;9.80;;;;;;;3.21;73.84;100848.45;1769521;80;21209;-58
2022/12/22 04:19:50;;;;;;;15.50;9.48;;;;;;;3.26;73.89;100847.61;1769575;81;21170;-59
2022/12/22 04:22:56;;;;;;;16.90;8.33;;;;;;;3.28;73.93;100845.66;1769970;80;21209;-58
2022/12/22 04:26:02;;;;;;;15.53;9.15;;;;;;;3.33;73.99;100843.94;1769633;80;21206;-59
2022/12/22 04:29:09;;;;;;;14.95;9.65;;;;;;;3.39;74.07;100843.45;1769538;80;21256;-58
2022/12/22 04:32:15;;;;;;;16.40;9.75;;;;;;;3.44;74.16;100848.86;1769984;80;21309;-58
2022/12/22 04:35:21;;;;;;;12.58;8.30;;;;;;;3.50;74.18;100852.95;1769705;80;21173;-58
2022/12/22 04:38:27;;;;;;;13.55;9.13;;;;;;;3.53;74.23;100844.11;1769118;81;21762;-58
2022/12/22 04:41:33;;;;;;;13.18;8.95;;;;;;;3.56;74.22;100846.58;1769062;80;21209;-58
2022/12/22 04:44:39;;;;;;;11.53;7.92;;;;;;;3.61;74.35;100843.02;1768996;80;21186;-59
2022/12/22 04:47:46;;;;;;;12.82;8.18;;;;;;;3.66;74.36;100836.76;1768974;79;21205;-57
2022/12/22 04:50:57;;;;;;;12.93;8.35;;;;;;;3.69;74.35;100845.98;1767973;80;21214;-58
2022/12/22 04:54:03;;;;;;;14.00;8.53;;;;;;;3.72;74.34;100847.58;1769450;80;21213;-56
2022/12/22 04:57:09;;;;;;;12.63;8.33;;;;;;;3.76;74.33;100844.50;1771278;77;21240;-57
2022/12/22 05:00:16;;;;;;;13.25;8.15;;;;;;;3.80;74.39;100851.42;1735484;81;21189;-57
2022/12/22 05:03:21;;;;;;;14.15;8.50;;;;;;;3.86;74.45;100856.34;1698628;83;21228;-57
2022/12/22 05:06:27;;;;;;;12.28;8.08;;;;;;;3.89;74.47;100843.03;1735197;82;21263;-58
2022/12/22 05:09:34;;;;;;;16.97;9.33;;;;;;;3.93;74.48;100844.53;1735708;81;21621;-58
2022/12/22 05:12:55;;;;;;;14.55;9.25;;;;;;;3.94;74.43;100845.77;1736151;82;21760;-57
2022/12/22 05:16:00;;;;;;;14.18;9.35;;;;;;;3.97;74.46;100849.58;1736125;81;21204;-58
2022/12/22 05:19:06;;;;;;;15.80;9.40;;;;;;;4.01;74.54;100848.84;1722368;82;21354;-57
2022/12/22 05:22:13;;;;;;;13.65;8.05;;;;;;;4.07;74.58;100846.98;1720607;83;21226;-57
2022/12/22 05:25:22;;;;;;;11.73;7.70;;;;;;;4.10;74.61;100847.61;1771229;80;21185;-57
2022/12/22 05:28:31;;;;;;;13.62;6.83;;;;;;;4.11;74.63;100849.33;1736284;82;21275;-58
2022/12/22 05:31:36;;;;;;;11.95;6.78;;;;;;;4.13;74.67;100860.91;1699196;83;21224;-58
2022/12/22 05:34:45;;;;;;;11.05;6.83;;;;;;;4.17;74.69;100856.95;1717134;82;21213;-57
2022/12/22 05:37:52;;;;;;;10.05;6.40;;;;;;;4.16;74.58;100853.88;1736079;82;21232;-57
2022/12/22 05:40:58;;;;;;;12.05;6.35;;;;;;;4.15;74.63;100853.52;1736091;81;21288;-58
2022/12/22 05:44:05;;;;;;;10.45;6.17;;;;;;;4.15;74.61;100849.46;1720647;82;21220;-58
2022/12/22 05:47:11;;;;;;;10.63;6.12;;;;;;;4.14;74.62;100851.78;1692574;83;21343;-57
2022/12/22 05:50:18;;;;;;;19.37;9.68;;;;;;;4.17;74.69;100853.40;1696844;83;21232;-57
2022/12/22 05:53:29;;;;;;;14.75;8.20;;;;;;;4.20;74.70;100855.34;1694931;83;21225;-57
2022/12/22 05:56:34;;;;;;;13.75;7.00;;;;;;;4.24;74.70;100848.70;1770638;79;21213;-57
2022/12/22 05:59:39;;;;;;;14.28;7.95;;;;;;;4.27;74.70;100854.36;1769271;80;21197;-56
2022/12/22 06:02:47;;;;;;;14.15;6.90;;;;;;;4.29;74.70;100855.98;1768697;80;21225;-55
2022/12/22 06:05:57;;;;;;;13.48;8.65;;;;;;;4.31;74.74;100866.17;1745105;81;21252;-55
2022/12/22 06:09:03;;;;;;;14.70;9.18;;;;;;;4.33;74.81;100864.20;1746065;81;21262;-55
2022/12/22 06:12:09;;;;;;;10.80;6.00;;;;;;;4.39;74.85;100871.00;1769831;79;21186;-55
2022/12/22 06:15:22;;;;;;;10.18;6.17;;;;;;;4.41;74.87;100868.52;1769116;80;21296;-56
2022/12/22 06:18:39;;;;;;;11.90;6.00;;;;;;;4.45;74.96;100875.42;1768409;81;21371;-56
2022/12/22 06:21:53;;;;;;;13.08;7.17;;;;;;;4.49;75.01;100870.11;1769969;80;21214;-57
2022/12/22 06:25:01;;;;;;;13.70;7.92;;;;;;;4.51;75.01;100877.63;1746345;81;21228;-57
2022/12/22 06:28:11;;;;;;;12.67;7.23;;;;;;;4.60;75.12;100874.64;1732764;83;21568;-60
2022/12/22 06:31:19;;;;;;;12.20;6.08;;;;;;;4.60;75.12;100874.64;1731630;81;22461;-58
2022/12/22 06:34:32;;;;;;;14.03;6.12;;;;;;;4.66;75.10;100873.28;1732373;81;21220;-56
2022/12/22 06:37:39;;;;;;;71.50;33.30;;;;;;;4.69;75.07;100872.55;1731993;83;21220;-56
2022/12/22 06:40:43;;;;;;;13.78;7.53;;;;;;;4.71;75.01;100865.64;1732458;81;21543;-56
2022/12/22 06:43:49;;;;;;;13.48;6.47;;;;;;;4.73;75.02;100869.06;1748361;81;21209;-57
2022/12/22 06:46:53;;;;;;;11.33;6.12;;;;;;;4.74;75.04;100861.31;1767588;80;21213;-57
2022/12/22 06:50:00;;;;;;;13.45;5.45;;;;;;;4.75;75.01;100865.26;1768534;81;21194;-57
2022/12/22 06:53:06;;;;;;;9.83;5.62;;;;;;;4.77;75.00;100857.86;1751081;81;21765;-56
2022/12/22 06:56:11;;;;;;;12.10;5.37;;;;;;;4.80;75.05;100864.39;1738526;81;21237;-56
2022/12/22 06:59:18;;;;;;;15.90;6.33;;;;;;;4.84;75.07;100852.76;1750031;81;21230;-56
2022/12/22 07:02:24;;;;;;;10.68;5.95;;;;;;;4.88;75.09;100861.90;1767228;80;21571;-56
2022/12/22 07:05:30;;;;;;;12.20;6.55;;;;;;;4.87;75.04;100852.02;1767528;80;21233;-56
2022/12/22 07:08:36;;;;;;;12.07;7.22;;;;;;;4.91;75.05;100856.70;1750114;81;21204;-55
2022/12/22 07:11:42;;;;;;;12.47;6.42;;;;;;;4.96;75.13;100853.11;1765945;80;21252;-55
2022/12/22 07:14:51;;;;;;;12.88;8.83;;;;;;;4.99;75.09;100857.79;1713585;82;21994;-55
2022/12/22 07:18:01;;;;;;;11.40;7.45;;;;;;;5.03;75.07;100851.59;1699688;83;21210;-54
2022/12/22 07:21:09;;;;;;;10.18;5.62;;;;;;;5.05;75.08;100853.69;1705765;82;21852;-54
2022/12/22 07:24:21;;;;;;;10.70;5.75;;;;;;;5.07;75.06;100856.65;1741477;80;21178;-53
2022/12/22 07:27:23;;;;;;;8.65;4.97;;;;;;;5.11;75.14;100858.59;1759864;79;21186;-54
2022/12/22 07:30:28;;;;;;;11.15;5.70;;;;;;;5.16;75.18;100861.77;1766874;81;21166;-54
2022/12/22 07:33:37;;;;;;;9.03;4.85;;;;;;;5.20;75.26;100861.90;1734388;81;21191;-54
2022/12/22 07:36:48;;;;;;;7.65;4.90;;;;;;;5.26;75.33;100865.44;1708872;82;21252;-53
2022/12/22 07:39:55;;;;;;;10.23;6.12;;;;;;;5.29;75.27;100863.34;1711972;83;21225;-54
2022/12/22 07:43:06;;;;;;;29.77;16.45;;;;;;;5.33;75.31;100859.84;1755277;80;21197;-56
2022/12/22 07:46:14;;;;;;;10.38;5.40;;;;;;;5.37;75.27;100860.83;1738593;81;21229;-54
2022/12/22 07:52:47;;;;;;;9.60;5.60;;;;;;;5.47;75.39;100859.55;1729350;82;21255;-56
2022/12/22 07:55:56;;;;;;;10.53;5.60;;;;;;;5.51;75.36;100862.34;1687529;83;21433;-55
2022/12/22 07:59:02;;;;;;;9.85;6.05;;;;;;;5.57;75.43;100868.11;1698075;82;21277;-55
2022/12/22 08:02:08;;;;;;;11.90;5.83;;;;;;;5.64;75.45;100861.17;1702456;82;21245;-55
2022/12/22 08:05:15;;;;;;;11.03;5.60;;;;;;;5.72;75.42;100857.78;1699299;83;21257;-54
2022/12/22 08:08:21;;;;;;;10.93;4.80;;;;;;;5.78;75.44;100853.17;1705507;83;21217;-54
2022/12/22 08:11:30;;;;;;;12.82;6.55;;;;;;;5.82;75.40;100850.56;1702704;82;21747;-54
2022/12/22 08:14:35;;;;;;;9.55;4.55;;;;;;;5.87;75.41;100847.82;1708354;83;21507;-55
2022/12/22 08:17:42;;;;;;;9.85;4.78;;;;;;;5.93;75.39;100853.23;1759050;79;21244;-50
2022/12/22 08:20:50;;;;;;;11.33;6.00;;;;;;;5.96;75.36;100857.03;1751491;79;21193;-55
2022/12/22 08:24:04;;;;;;;9.70;5.60;;;;;;;5.98;75.40;100852.30;1762373;81;21407;-55
2022/12/22 08:27:23;;;;;;;9.18;5.45;;;;;;;6.02;75.45;100853.77;1768516;81;21182;-56
2022/12/22 08:30:36;;;;;;;9.10;4.70;;;;;;;6.05;75.44;100853.49;1760803;79;21281;-57
2022/12/22 08:33:50;;;;;;;10.03;4.95;;;;;;;6.06;75.37;100851.13;1743575;81;21233;-55
2022/12/22 08:37:09;;;;;;;12.13;5.78;;;;;;;6.07;75.40;100855.59;1770475;80;21780;-56
2022/12/22 08:40:29;;;;;;;13.15;5.37;;;;;;;6.09;75.42;100857.64;1762892;80;21212;-54
2022/12/22 08:43:37;;;;;;;11.65;5.17;;;;;;;6.13;75.52;100851.45;1769171;79;21197;-55
2022/12/22 08:46:43;;;;;;;13.32;4.85;;;;;;;6.16;75.60;100841.66;1733122;81;21359;-53
2022/12/22 08:49:49;;;;;;;13.10;5.70;;;;;;;6.19;75.62;100840.02;1771457;80;21169;-54
2022/12/22 08:52:55;;;;;;;13.15;6.28;;;;;;;6.22;75.61;100841.11;1761260;80;21236;-55
2022/12/22 08:56:03;;;;;;;10.13;5.45;;;;;;;6.23;75.65;100845.08;1764011;80;21184;-56
2022/12/22 08:59:08;;;;;;;10.30;5.53;;;;;;;6.24;75.60;100849.99;1736973;81;21212;-55
2022/12/22 09:02:14;;;;;;;17.05;7.58;;;;;;;6.23;75.64;100855.95;1748814;80;21197;-56
2022/12/22 09:05:21;;;;;;;11.53;5.95;;;;;;;6.27;75.69;100857.87;1770149;80;21786;-56
2022/12/22 09:08:27;;;;;;;15.05;8.85;;;;;;;6.23;75.61;100843.72;1764907;80;21203;-56
2022/12/22 09:11:34;;;;;;;9.85;5.72;;;;;;;6.21;75.64;100844.34;1767053;80;21281;-61
2022/12/22 09:14:48;;;;;;;10.98;4.97;;;;;;;6.22;75.65;100839.26;1761610;80;21209;-56
2022/12/22 09:17:56;;;;;;;9.88;5.10;;;;;;;6.21;75.69;100831.24;1764420;79;21197;-55
2022/12/22 09:21:02;;;;;;;13.18;5.20;;;;;;;6.23;75.74;100833.33;1760145;79;21197;-57
2022/12/22 09:24:12;;;;;;;11.80;5.47;;;;;;;6.25;75.78;100835.42;1752050;80;21710;-57
2022/12/22 09:27:32;;;;;;;9.15;5.00;;;;;;;6.29;75.84;100834.14;1764780;81;21750;-59
2022/12/22 09:30:49;;;;;;;10.05;5.10;;;;;;;6.32;75.80;100832.01;1767896;80;21941;-58
2022/12/22 09:34:05;;;;;;;8.85;5.40;;;;;;;6.37;75.82;100828.88;1862567;76;22208;-58
2022/12/22 09:37:19;;;;;;;9.60;5.50;;;;;;;6.35;75.84;100828.14;1805562;77;21642;-59
2022/12/22 09:40:40;;;;;;;12.45;7.25;;;;;;;6.36;75.84;100818.48;1750447;81;21201;-57
2022/12/22 09:43:45;;;;;;;11.90;6.25;;;;;;;6.40;75.87;100817.23;1765607;81;21225;-58
2022/12/22 09:46:51;;;;;;;11.25;6.15;;;;;;;6.39;75.81;100823.64;1801211;78;21212;-58
2022/12/22 09:49:58;;;;;;;11.97;6.12;;;;;;;6.40;75.82;100824.52;1811515;78;21209;-57
2022/12/22 09:53:08;;;;;;;10.95;6.20;;;;;;;6.43;75.83;100827.82;1780040;78;21212;-58
2022/12/22 09:56:19;;;;;;;11.18;6.50;;;;;;;6.46;75.89;100819.38;1755461;80;21213;-55
2022/12/22 09:59:25;;;;;;;13.18;6.60;;;;;;;6.48;75.90;100821.97;1756455;81;21452;-56
2022/12/22 10:02:40;;;;;;;15.05;8.20;;;;;;;6.47;75.79;100819.73;1768940;79;21170;-56
2022/12/22 10:05:55;;;;;;;;;;;;;;;6.46;75.76;100815.80;1806031;79;21142;-57
2022/12/22 10:09:05;;;;;;;14.80;7.90;;;;;;;6.47;75.80;100812.94;1802267;79;20198;-58
2022/12/22 10:12:13;;;;;;;13.40;7.33;;;;;;;6.49;75.90;100812.30;1747262;79;21173;-56
2022/12/22 10:15:21;;;;;;;10.03;6.62;;;;;;;6.50;75.88;100807.73;1813568;78;21224;-58
2022/12/22 10:18:30;;;;;;;15.38;7.95;;;;;;;6.51;75.90;100808.95;1817438;78;21185;-58
2022/12/22 10:21:36;;;;;;;13.35;7.70;;;;;;;6.53;75.91;100805.60;1764425;81;21272;-59
2022/12/22 10:24:43;;;;;;;11.43;7.30;;;;;;;6.55;75.96;100807.66;1745326;81;21805;-59
2022/12/22 10:27:48;;;;;;;14.00;7.30;;;;;;;6.59;75.93;100810.48;1765904;81;21581;-59
2022/12/22 10:30:55;;;;;;;13.83;6.60;;;;;;;6.57;75.95;100797.51;1765350;81;21189;-58
2022/12/22 10:34:03;;;;;;;13.98;7.70;;;;;;;6.60;75.97;100802.66;1754944;80;21214;-58
2022/12/22 10:37:09;;;;;;;20.60;10.38;;;;;;;6.63;76.00;100798.30;1747667;81;21226;-58
2022/12/22 10:40:31;;;;;;;14.93;8.30;;;;;;;6.68;76.05;100797.38;1748307;82;21233;-59
2022/12/22 10:43:41;;;;;;;16.23;7.58;;;;;;;6.73;76.08;100795.59;1754987;81;21336;-58
2022/12/22 10:46:51;;;;;;;12.45;6.95;;;;;;;6.74;76.03;100798.17;1793732;79;21823;-59
2022/12/22 10:50:01;;;;;;;25.52;11.75;;;;;;;6.75;76.02;100793.11;1805485;79;21856;-59
2022/12/22 10:53:08;;;;;;;23.50;8.38;;;;;;;6.79;76.07;100796.37;1750592;81;21335;-59
2022/12/22 10:56:30;;;;;;;17.80;8.33;;;;;;;6.82;76.06;100801.05;1705475;82;21454;-59
2022/12/22 11:00:03;;;;;;;17.15;7.78;;;;;;;6.82;76.03;100796.97;1797247;79;21762;-60
2022/12/22 11:03:21;;;;;;;14.68;8.68;;;;;;;6.84;76.07;100793.61;1775764;79;21893;-59
2022/12/22 11:06:28;;;;;;;11.15;7.17;;;;;;;6.84;76.02;100789.53;1742442;79;21296;-61
2022/12/22 11:09:37;;;;;;;15.80;7.90;;;;;;;6.82;76.04;100779.80;1746100;80;21212;-59
2022/12/22 11:13:13;;;;;;;9.48;6.40;;;;;;;6.78;76.03;100779.71;1750155;80;21197;-59
2022/12/22 11:16:48;;;;;;;12.53;6.20;;;;;;;6.76;76.04;100777.62;1767148;81;21867;-59
2022/12/22 11:20:04;;;;;;;16.42;7.22;;;;;;;6.73;76.09;100776.06;1705392;82;21328;-58
2022/12/22 11:23:26;;;;;;;18.35;8.43;;;;;;;6.69;76.08;100771.88;1706924;82;21276;-59
2022/12/22 11:26:54;;;;;;;13.62;8.15;;;;;;;6.70;76.15;100769.55;1767902;80;21529;-59
2022/12/22 11:30:10;;;;;;;18.20;10.13;;;;;;;6.68;76.10;100767.45;1772423;79;21220;-59
2022/12/22 11:33:54;;;;;;;14.13;8.08;;;;;;;6.69;76.18;100773.25;1772270;79;21372;-57
2022/12/22 11:37:31;;;;;;;12.30;7.70;;;;;;;6.72;76.24;100775.72;1786544;78;21218;-58
2022/12/22 11:40:47;;;;;;;15.88;7.58;;;;;;;6.73;76.12;100767.90;1811618;78;21450;-59
2022/12/22 11:44:31;;;;;;;10.32;6.50;;;;;;;6.74;76.09;100771.48;1803265;79;22028;-55
2022/12/22 11:48:19;;;;;;;18.05;10.80;;;;;;;6.74;76.06;100768.77;1803361;79;21209;-57
2022/12/22 11:51:52;;;;;;;16.02;8.85;;;;;;;6.73;76.10;100766.54;1806254;78;21781;-57
2022/12/22 11:55:30;;;;;;;14.20;7.47;;;;;;;6.73;76.15;100769.27;1804674;78;21224;-56
2022/12/22 11:59:11;;;;;;;14.53;8.58;;;;;;;6.74;76.19;100775.05;1802968;78;21185;-58
2022/12/22 12:02:39;;;;;;;14.90;8.40;;;;;;;6.74;76.17;100772.33;1785438;78;21236;-56
2022/12/22 12:06:16;;;;;;;16.02;8.63;;;;;;;6.73;76.16;100767.90;1804527;78;21694;-57
2022/12/22 12:09:59;;;;;;;13.18;8.58;;;;;;;6.73;76.17;100773.34;1736864;81;21301;-57
2022/12/22 12:13:32;;;;;;;15.98;10.65;;;;;;;6.72;76.15;100772.99;1731490;81;21696;-51
2022/12/22 12:16:56;;;;;;;17.92;10.25;;;;;;;6.72;76.20;100770.27;1806748;78;21795;-51
2022/12/22 12:20:27;;;;;;;19.70;8.83;;;;;;;6.71;76.21;100766.30;1786877;78;21483;-51
2022/12/22 12:23:59;;;;;;;28.98;14.50;;;;;;;6.72;76.29;100779.80;1801326;78;21195;-52
2022/12/22 12:27:33;;;;;;;21.27;9.20;;;;;;;6.70;76.30;100765.47;1717517;82;21303;-54
2022/12/22 12:30:44;;;;;;;16.00;8.08;;;;;;;6.68;76.30;100774.26;1802030;79;21319;-51
2022/12/22 12:34:02;;;;;;;20.60;9.95;;;;;;;6.69;76.30;100773.25;1807383;78;21240;-51
2022/12/22 12:37:28;;;;;;;17.92;10.03;;;;;;;6.69;76.30;100778.69;1780448;78;21213;-51
2022/12/22 12:40:53;;;;;;;22.87;13.25;;;;;;;6.66;76.26;100771.34;1742937;79;21203;-50
2022/12/22 12:43:59;;;;;;;19.27;9.98;;;;;;;6.65;76.31;100773.19;1725529;82;21233;-51
2022/12/22 12:47:37;;;;;;;16.27;8.75;;;;;;;6.67;76.31;100771.19;1796263;78;21261;-51
2022/12/22 12:50:42;;;;;;;18.23;9.43;;;;;;;6.64;76.29;100770.12;1780208;79;21345;-53
2022/12/22 12:53:55;;;;;;;17.98;12.53;;;;;;;6.62;76.30;100772.11;1744611;80;21223;-52
2022/12/22 12:57:35;;;;;;;16.95;8.00;;;;;;;6.62;76.32;100776.19;1766796;79;21272;-58
2022/12/22 13:00:45;;;;;;;16.17;8.85;;;;;;;6.60;76.31;100764.58;1776304;79;21205;-58
2022/12/22 13:03:54;;;;;;;13.75;8.63;;;;;;;6.58;76.28;100767.94;1773318;79;21259;-57
2022/12/22 13:07:02;;;;;;;15.75;7.40;;;;;;;6.56;76.31;100764.52;1771285;79;21241;-58
2022/12/22 13:10:26;;;;;;;14.80;7.97;;;;;;;6.55;76.22;100757.87;1784835;79;21928;-57
2022/12/22 13:13:41;;;;;;;14.45;7.40;;;;;;;6.51;76.16;100760.00;1771357;78;21585;-58
2022/12/22 13:16:47;;;;;;;14.50;7.03;;;;;;;6.46;76.13;100750.04;1781018;78;21236;-57
2022/12/22 13:19:54;;;;;;;11.45;6.12;;;;;;;6.43;76.17;100748.97;1779198;79;21268;-57
2022/12/22 13:23:03;;;;;;;17.37;6.45;;;;;;;6.38;76.12;100747.16;1754004;80;21357;-57
2022/12/22 13:26:20;;;;;;;16.45;8.80;;;;;;;6.36;76.18;100753.23;1748100;81;21335;-57
2022/12/22 13:29:50;;;;;;;13.00;6.62;;;;;;;6.34;76.19;100742.15;1772996;78;21272;-56
2022/12/22 13:33:00;;;;;;;12.25;5.70;;;;;;;6.29;76.25;100749.37;1703055;83;21346;-56
2022/12/22 13:36:05;;;;;;;9.75;6.00;;;;;;;6.25;76.30;100753.35;1774686;79;21594;-56
2022/12/22 13:39:12;;;;;;;10.80;6.10;;;;;;;6.24;76.41;100757.08;1790471;79;21192;-57
2022/12/22 13:42:24;;;;;;;14.78;6.33;;;;;;;6.23;76.45;100770.81;1793771;78;21224;-57
2022/12/22 13:45:54;;;;;;;15.55;8.40;;;;;;;6.23;76.55;100771.69;1781696;80;21797;-57
2022/12/22 13:49:03;;;;;;;11.97;7.28;;;;;;;6.22;76.54;100763.14;1778956;79;21733;-56
2022/12/22 13:52:08;;;;;;;12.37;6.75;;;;;;;6.20;76.58;100762.94;1781833;79;21260;-58
2022/12/22 13:55:24;;;;;;;14.23;7.35;;;;;;;6.20;76.60;100765.66;1785475;79;21248;-56
2022/12/22 13:58:36;;;;;;;15.95;8.78;;;;;;;6.19;76.52;100759.84;1782132;79;21217;-50
2022/12/22 14:01:43;;;;;;;14.85;7.70;;;;;;;6.15;76.49;100762.00;1777085;79;21744;-50
2022/12/22 14:05:12;;;;;;;12.82;6.47;;;;;;;6.14;76.51;100762.98;1780500;78;21240;-51
2022/12/22 14:08:19;;;;;;;12.18;6.90;;;;;;;6.11;76.50;100767.33;1774804;79;21193;-50
2022/12/22 14:11:27;;;;;;;13.78;6.50;;;;;;;6.07;76.43;100767.27;1770919;79;21272;-50
2022/12/22 14:14:45;;;;;;;13.90;5.95;;;;;;;6.04;76.47;100766.19;1787706;80;21658;-51
2022/12/22 14:17:52;;;;;;;16.40;6.25;;;;;;;6.02;76.48;100764.09;1772904;80;21792;-50
2022/12/22 14:20:58;;;;;;;11.65;6.50;;;;;;;5.99;76.46;100764.38;1776062;80;21216;-51
2022/12/22 14:24:04;;;;;;;21.75;8.10;;;;;;;5.98;76.49;100763.50;1772881;79;21216;-50
2022/12/22 14:27:09;;;;;;;13.25;6.78;;;;;;;5.98;76.55;100760.78;1789490;79;21551;-51
2022/12/22 14:30:25;;;;;;;14.73;6.97;;;;;;;5.99;76.60;100758.41;1781012;79;21440;-51
2022/12/22 14:33:40;;;;;;;12.82;6.00;;;;;;;5.99;76.59;100750.27;1776355;78;21758;-56
2022/12/22 14:36:57;;;;;;;14.93;6.12;;;;;;;5.98;76.59;100753.13;1787963;79;21272;-60
2022/12/22 14:40:14;;;;;;;15.68;7.03;;;;;;;5.96;76.57;100747.83;1736278;80;21186;-60
2022/12/22 14:43:29;;;;;;;11.93;6.60;;;;;;;5.96;76.62;100748.34;1757851;80;21286;-55
2022/12/22 14:47:18;;;;;;;11.50;6.90;;;;;;;5.96;76.64;100751.91;1755503;79;21221;-56
2022/12/22 14:50:34;;;;;;;11.60;6.97;;;;;;;5.96;76.66;100752.42;1755723;80;22118;-56
2022/12/22 14:54:01;;;;;;;12.55;6.72;;;;;;;5.97;76.69;100756.84;1760078;80;21791;-56
2022/12/22 14:57:14;;;;;;;17.73;7.22;;;;;;;5.96;76.65;100760.58;1753454;81;21583;-59
2022/12/22 15:00:36;;;;;;;18.32;7.75;;;;;;;5.94;76.62;100760.72;1774580;80;21228;-51
2022/12/22 15:03:48;;;;;;;14.45;7.15;;;;;;;5.92;76.67;100759.11;1743318;80;21425;-51
2022/12/22 15:07:16;;;;;;;14.15;7.33;;;;;;;5.92;76.75;100759.11;1688622;83;21287;-56
2022/12/22 15:10:26;;;;;;;17.73;8.58;;;;;;;5.91;76.75;100760.96;1773208;80;21201;-57
2022/12/22 15:13:33;;;;;;;19.10;7.92;;;;;;;5.94;76.82;100762.07;1763834;80;21238;-56
2022/12/22 15:16:41;;;;;;;11.70;7.75;;;;;;;5.95;76.79;100765.63;1757220;80;21209;-56
2022/12/22 15:19:50;;;;;;;12.50;7.90;;;;;;;5.95;76.76;100771.06;1752444;81;21185;-56
2022/12/22 15:22:55;;;;;;;14.15;7.92;;;;;;;5.95;76.78;100769.70;1756964;80;21172;-54
2022/12/22 15:26:01;;;;;;;14.45;7.95;;;;;;;5.95;76.80;100767.86;1687710;83;21269;-55
2022/12/22 15:29:01;;;;;;;20.25;8.63;;;;;;;5.97;76.84;100777.23;1778947;79;21189;-56
2022/12/22 15:32:07;;;;;;;16.93;8.80;;;;;;;5.97;76.82;100774.02;1785515;80;22051;-56
2022/12/22 15:35:26;;;;;;;14.18;8.33;;;;;;;5.95;76.78;100769.70;1672979;83;21233;-55
2022/12/22 15:38:32;;;;;;;11.38;7.47;;;;;;;5.96;76.81;100770.09;1741677;78;21572;-55
2022/12/22 15:41:39;;;;;;;10.82;6.92;;;;;;;5.96;76.77;100770.09;1787575;79;21798;-52
2022/12/22 15:44:48;;;;;;;12.25;7.03;;;;;;;5.96;76.77;100774.16;1777709;80;21233;-56
2022/12/22 15:47:58;;;;;;;9.83;6.05;;;;;;;5.95;76.75;100776.50;1786466;80;21598;-56
2022/12/22 15:51:10;;;;;;;;;;;;;;;5.94;76.75;100778.86;1732871;81;21243;-56
2022/12/22 15:54:19;;;;;;;10.30;6.67;;;;;;;5.96;76.80;100787.75;1684275;84;20200;-56
2022/12/22 15:57:28;;;;;;;15.08;6.40;;;;;;;5.94;76.79;100778.86;1767211;81;21296;-56
2022/12/22 16:00:36;;;;;;;13.68;6.05;;;;;;;5.96;76.84;100782.31;1793504;79;21191;-56
2022/12/22 16:03:48;;;;;;;16.15;6.08;;;;;;;5.96;76.83;100772.28;1769755;80;21259;-56
2022/12/22 16:06:55;;;;;;;11.40;6.20;;;;;;;5.95;76.81;100773.30;1791359;79;21403;-56
2022/12/22 16:10:17;;;;;;;9.80;6.45;;;;;;;5.95;76.78;100777.86;1786013;79;21178;-57
2022/12/22 16:13:32;;;;;;;11.20;7.25;;;;;;;5.94;76.77;100773.43;1794649;80;21189;-56
2022/12/22 16:16:40;;;;;;;11.40;6.60;;;;;;;5.94;76.81;100772.07;1797868;79;21228;-56
2022/12/22 16:20:20;;;;;;;10.65;7.15;;;;;;;5.95;76.83;100773.78;1790878;79;21212;-57
2022/12/22 16:23:32;;;;;;;23.18;16.00;;;;;;;5.98;76.87;100763.50;1859887;75;22203;-57
2022/12/22 16:26:37;;;;;;;16.35;9.23;;;;;;;5.93;76.99;100769.00;1793996;79;21248;-55
2022/12/22 16:29:43;;;;;;;16.93;9.03;;;;;;;5.91;77.02;100763.67;1745361;81;21717;-55
2022/12/22 16:32:49;;;;;;;16.00;9.50;;;;;;;5.93;77.06;100763.05;1762281;81;21200;-54
2022/12/22 16:35:54;;;;;;;13.35;8.88;;;;;;;5.94;76.99;100755.77;1764489;79;21538;-55
2022/12/22 16:39:01;;;;;;;15.23;8.78;;;;;;;5.93;76.92;100760.33;1772736;80;21189;-56
2022/12/22 16:42:07;;;;;;;15.78;9.20;;;;;;;5.91;76.89;100758.77;1706233;82;21299;-56
2022/12/22 16:45:33;;;;;;;15.45;8.68;;;;;;;5.89;76.87;100757.55;1741560;82;21421;-56
2022/12/22 16:49:01;;;;;;;19.10;8.85;;;;;;;5.87;76.91;100762.25;1769171;81;21195;-56
2022/12/22 16:52:06;;;;;;;14.43;7.62;;;;;;;5.88;76.94;100763.12;1769848;80;21206;-57
2022/12/22 16:55:22;;;;;;;14.93;7.35;;;;;;;5.88;76.95;100767.19;1772287;80;21698;-56
2022/12/22 16:58:30;;;;;;;19.00;11.45;;;;;;;5.89;76.98;100765.69;1737750;82;21180;-57
2022/12/22 17:01:53;;;;;;;18.95;8.73;;;;;;;5.89;76.94;100759.39;1760008;80;21161;-57
2022/12/22 17:05:05;;;;;;;11.05;6.58;;;;;;;5.86;76.82;100759.17;1760512;81;21209;-55
2022/12/22 17:08:11;;;;;;;13.30;8.35;;;;;;;5.81;76.75;100759.17;1760898;81;21357;-56
2022/12/22 17:11:31;;;;;;;13.35;8.43;;;;;;;5.80;76.81;100753.40;1761312;81;21498;-56
2022/12/22 17:14:44;;;;;;;18.32;10.20;;;;;;;5.80;76.85;100754.75;1764571;81;21193;-56
2022/12/22 17:17:51;;;;;;;20.10;12.13;;;;;;;5.82;76.84;100751.41;1770581;81;21335;-55
2022/12/22 17:21:03;;;;;;;21.55;13.13;;;;;;;5.83;76.83;100745.87;1769317;80;21225;-56
2022/12/22 17:24:08;;;;;;;22.07;12.07;;;;;;;5.84;76.82;100753.02;1769450;80;21758;-55
2022/12/22 17:27:14;;;;;;;17.87;10.53;;;;;;;5.86;76.76;100752.88;1772772;79;21208;-56
2022/12/22 17:30:32;;;;;;;18.17;10.82;;;;;;;5.86;76.68;100751.52;1801394;79;21165;-56
2022/12/22 17:33:38;;;;;;;16.30;9.70;;;;;;;5.88;76.75;100752.25;1802203;79;21714;-57
2022/12/22 17:36:44;;;;;;;15.20;7.97;;;;;;;5.90;76.76;100759.25;1801781;79;21205;-57
2022/12/22 17:39:51;;;;;;;10.95;7.58;;;;;;;5.90;76.68;100751.59;1802237;79;21174;-57
2022/12/22 17:43:01;;;;;;;14.58;8.73;;;;;;;5.89;76.63;100757.55;1801365;79;21196;-57
2022/12/22 17:46:04;;;;;;;13.65;8.70;;;;;;;5.86;76.63;100751.03;1801247;79;21714;-56
2022/12/22 17:49:09;;;;;;;17.50;8.05;;;;;;;5.90;76.68;100752.95;1801295;79;21182;-56
2022/12/22 17:52:26;;;;;;;15.78;9.75;;;;;;;5.90;76.79;100758.38;1801627;79;21193;-55
2022/12/22 17:55:33;;;;;;;17.10;9.40;;;;;;;5.92;76.90;100752.32;1802262;79;21366;-56
2022/12/22 17:58:42;;;;;;;18.95;10.05;;;;;;;5.95;77.00;100755.63;1801740;79;21185;-56
2022/12/22 18:01:48;;;;;;;16.32;8.90;;;;;;;5.96;76.94;100747.83;1802354;79;21217;-55
2022/12/22 18:04:54;;;;;;;14.93;8.50;;;;;;;5.96;76.88;100750.55;1802316;79;21169;-56
2022/12/22 18:08:01;;;;;;;11.93;8.18;;;;;;;5.95;76.79;100749.33;1802535;79;21308;-55
2022/12/22 18:11:07;;;;;;;13.00;7.70;;;;;;;5.93;76.79;100748.11;1796883;79;21213;-55
2022/12/22 18:14:14;;;;;;;12.58;8.03;;;;;;;5.91;76.77;100741.11;1713782;82;21562;-57
2022/12/22 18:17:34;;;;;;;13.18;8.35;;;;;;;5.87;76.74;100747.79;1734921;82;21733;-56
2022/12/22 18:20:40;;;;;;;13.28;8.48;;;;;;;5.84;76.78;100742.15;1735092;82;21257;-56
2022/12/22 18:23:48;;;;;;;12.43;8.23;;;;;;;5.86;76.84;100748.80;1724827;81;21280;-56
2022/12/22 18:26:56;;;;;;;17.65;10.90;;;;;;;5.87;76.94;100747.30;1709993;82;21653;-56
2022/12/22 18:30:02;;;;;;;15.63;9.48;;;;;;;5.89;76.98;100745.31;1692505;85;21340;-56
2022/12/22 18:33:07;;;;;;;15.13;8.38;;;;;;;5.91;76.95;100743.82;1692595;85;21210;-56